Gate, Washington
Current Conditions -  °F | °C
As of 9:35 AM on Tuesday 21 Oct 2014 (Local Time) from KCLS Reporting Station
Broken Clouds Broken Clouds  
Wind Chill: 55°   Ceiling: 4500
Heat Index: 55°   Visibility: 10mi
Dew Point: 54°   Wind: 9mph
Humidity: 94%   Direction: 170°S
Pressure: 29.93"   Gusts: NA
Location:  46.7945°N, 123.146°W
Report Text: KCLS 211635Z AUTO 17008KT 140V200 10SM SCT015 SCT036 BKN045 13/12 A2993 RMK AO2
Loading
Personal Weather Stations






























Interactive Weather Map
Tropical Storm Tracking
New forecast layout! Learn more

10-Day Weather Forecast

Advertisements
Track Severe Weather on mobile